createdAt,value
2022-12-22T00:02:27.993Z,16.75
2022-12-22T00:05:13.166Z,25.02
2022-12-22T00:07:58.737Z,23.17
2022-12-22T00:10:44.128Z,22.27
2022-12-22T00:13:32.152Z,18.65
2022-12-22T00:16:17.457Z,24.63
2022-12-22T00:19:03.253Z,23.27
2022-12-22T00:21:49.823Z,22.83
2022-12-22T00:24:35.002Z,21.73
2022-12-22T00:27:20.388Z,21.27
2022-12-22T00:30:05.593Z,20.55
2022-12-22T00:32:54.687Z,20.08
2022-12-22T00:35:43.617Z,19.20
2022-12-22T00:38:38.676Z,25.50
2022-12-22T00:41:25.003Z,24.73
2022-12-22T00:44:10.133Z,19.48
2022-12-22T00:46:58.687Z,20.33
2022-12-22T00:49:46.781Z,22.67
2022-12-22T00:52:33.121Z,24.15
2022-12-22T00:55:19.107Z,23.48
2022-12-22T00:58:05.098Z,25.98
2022-12-22T01:00:50.585Z,28.80
2022-12-22T01:03:35.971Z,25.02
2022-12-22T01:06:22.354Z,19.80
2022-12-22T01:09:07.790Z,24.50
2022-12-22T01:11:53.942Z,24.70
2022-12-22T01:14:39.578Z,22.45
2022-12-22T01:17:24.756Z,15.82
2022-12-22T01:20:10.175Z,21.02
2022-12-22T01:22:55.572Z,23.60
2022-12-22T01:25:40.861Z,20.48
2022-12-22T01:28:33.859Z,24.85
2022-12-22T01:31:42.807Z,26.48
2022-12-22T01:34:28.167Z,27.63
2022-12-22T01:37:13.473Z,27.08
2022-12-22T01:39:58.784Z,25.27
2022-12-22T01:42:46.539Z,28.10
2022-12-22T01:45:46.750Z,25.80
2022-12-22T01:48:35.537Z,28.13
2022-12-22T01:51:28.887Z,27.23
2022-12-22T01:54:16.312Z,26.60
2022-12-22T01:57:03.995Z,24.08
2022-12-22T01:59:49.817Z,28.65
2022-12-22T02:02:37.136Z,27.55
2022-12-22T02:05:24.975Z,27.25
2022-12-22T02:08:22.307Z,25.00
2022-12-22T02:11:26.039Z,25.73
2022-12-22T02:17:53.216Z,25.40
2022-12-22T02:21:12.726Z,24.65
2022-12-22T02:24:43.022Z,26.13
2022-12-22T02:27:30.762Z,25.90
2022-12-22T02:30:26.265Z,26.45
2022-12-22T02:33:13.244Z,28.30
2022-12-22T02:36:49.770Z,25.13
2022-12-22T02:40:17.200Z,25.40
2022-12-22T02:43:40.419Z,21.20
2022-12-22T02:46:44.118Z,23.95
2022-12-22T02:52:50.038Z,24.88
2022-12-22T02:55:36.758Z,25.67
2022-12-22T02:58:22.121Z,23.02
2022-12-22T03:01:07.891Z,23.23
2022-12-22T03:03:53.107Z,23.70
2022-12-22T03:06:38.248Z,22.73
2022-12-22T03:09:23.370Z,27.10
2022-12-22T03:12:08.579Z,19.92
2022-12-22T03:14:53.785Z,21.52
2022-12-22T03:17:39.166Z,23.15
2022-12-22T03:20:25.893Z,22.02
2022-12-22T03:23:11.289Z,28.60
2022-12-22T03:25:53.949Z,23.80
2022-12-22T03:28:27.403Z,21.10
2022-12-22T03:31:06.183Z,22.50
2022-12-22T03:33:33.582Z,23.67
2022-12-22T03:36:01.067Z,23.98
2022-12-22T03:38:28.687Z,21.58
2022-12-22T03:40:56.020Z,22.33
2022-12-22T03:43:41.681Z,21.45
2022-12-22T03:46:16.341Z,18.52
2022-12-22T03:48:44.520Z,17.50
2022-12-22T03:51:11.486Z,21.10
2022-12-22T03:53:38.253Z,20.13
2022-12-22T03:56:07.977Z,20.52
2022-12-22T03:58:35.014Z,21.25
2022-12-22T04:01:07.073Z,18.90
2022-12-22T04:03:33.942Z,14.55
2022-12-22T04:06:01.708Z,17.98
2022-12-22T04:08:28.573Z,17.15
2022-12-22T04:11:13.719Z,16.30
2022-12-22T04:13:40.538Z,17.83
2022-12-22T04:16:07.494Z,16.33
2022-12-22T04:18:34.305Z,15.05
2022-12-22T04:21:01.185Z,16.40
2022-12-22T04:23:27.967Z,21.52
2022-12-22T04:25:54.830Z,23.30
2022-12-22T04:28:21.685Z,20.70
2022-12-22T04:30:51.054Z,18.02
2022-12-22T04:33:18.200Z,17.48
2022-12-22T04:35:45.036Z,17.85
2022-12-22T04:38:12.001Z,23.85
2022-12-22T04:40:38.802Z,16.65
2022-12-22T04:43:05.602Z,18.00
2022-12-22T04:45:32.571Z,18.90
2022-12-22T04:47:59.399Z,21.42
2022-12-22T04:50:26.319Z,14.40
2022-12-22T04:52:53.248Z,13.30
2022-12-22T04:55:20.071Z,15.43
2022-12-22T04:57:46.827Z,10.57
2022-12-22T05:00:14.903Z,17.60
2022-12-22T05:02:41.837Z,14.32
2022-12-22T05:05:09.295Z,13.40
2022-12-22T05:07:36.548Z,17.13
2022-12-22T05:10:05.558Z,13.50
2022-12-22T05:12:50.572Z,16.48
2022-12-22T05:15:17.484Z,13.07
2022-12-22T05:17:44.243Z,11.70
2022-12-22T05:20:11.362Z,16.48
2022-12-22T05:22:38.185Z,17.15
2022-12-22T05:25:05.887Z,16.25
2022-12-22T05:27:32.663Z,17.13
2022-12-22T05:29:59.437Z,13.38
2022-12-22T05:32:26.232Z,12.13
2022-12-22T05:34:53.032Z,10.65
2022-12-22T05:37:19.782Z,12.75
2022-12-22T05:39:46.560Z,16.63
2022-12-22T05:42:13.315Z,14.40
2022-12-22T05:44:40.051Z,16.88
2022-12-22T05:47:06.967Z,13.48
2022-12-22T05:49:33.728Z,12.50
2022-12-22T05:52:00.494Z,9.82
2022-12-22T05:54:27.260Z,16.98
2022-12-22T05:56:54.006Z,11.38
2022-12-22T05:59:20.797Z,9.63
2022-12-22T06:01:47.630Z,9.63
2022-12-22T06:04:14.548Z,16.73
2022-12-22T06:06:41.401Z,7.93
2022-12-22T06:09:08.220Z,15.82
2022-12-22T06:11:34.961Z,12.48
2022-12-22T06:14:01.730Z,9.45
2022-12-22T06:16:28.866Z,14.63
2022-12-22T06:18:55.645Z,8.15
2022-12-22T06:21:22.431Z,11.90
2022-12-22T06:23:49.246Z,11.43
2022-12-22T06:26:16.153Z,15.68
2022-12-22T06:28:42.959Z,13.25
2022-12-22T06:31:09.751Z,8.20
2022-12-22T06:33:36.669Z,13.82
2022-12-22T06:36:08.413Z,13.05
2022-12-22T06:38:35.437Z,13.77
2022-12-22T06:41:02.245Z,11.10
2022-12-22T06:43:29.016Z,10.40
2022-12-22T06:45:55.855Z,13.85
2022-12-22T06:48:22.787Z,12.63
2022-12-22T06:50:50.052Z,13.77
2022-12-22T06:53:16.981Z,19.55
2022-12-22T06:55:43.791Z,21.52
2022-12-22T06:58:10.839Z,18.15
2022-12-22T07:00:37.736Z,13.65
2022-12-22T07:03:04.679Z,10.65
2022-12-22T07:05:32.025Z,10.23
2022-12-22T07:08:05.755Z,14.88
2022-12-22T07:10:53.556Z,11.15
2022-12-22T07:13:20.444Z,10.75
2022-12-22T07:15:52.049Z,11.95
2022-12-22T07:18:24.596Z,11.63
2022-12-22T07:20:51.497Z,11.82
2022-12-22T07:23:18.327Z,10.38
2022-12-22T07:25:45.200Z,13.30
2022-12-22T07:28:18.399Z,9.73
2022-12-22T07:30:47.590Z,8.75
2022-12-22T07:33:14.354Z,12.80
2022-12-22T07:35:41.170Z,10.05
2022-12-22T07:38:07.973Z,9.77
2022-12-22T07:40:41.097Z,6.68
2022-12-22T07:43:08.518Z,7.85
2022-12-22T07:45:35.392Z,10.07
2022-12-22T07:48:23.843Z,10.23
2022-12-22T07:50:50.606Z,8.45
2022-12-22T07:53:17.336Z,10.65
2022-12-22T07:55:44.191Z,10.77
2022-12-22T07:58:10.934Z,10.25
2022-12-22T08:00:37.726Z,10.70
2022-12-22T08:03:04.652Z,13.85
2022-12-22T08:05:31.550Z,9.73
2022-12-22T08:07:58.328Z,13.48
2022-12-22T08:10:25.118Z,11.85
2022-12-22T08:12:51.956Z,14.75
2022-12-22T08:15:18.818Z,13.18
2022-12-22T08:17:45.590Z,10.38
2022-12-22T08:20:12.488Z,11.10
2022-12-22T08:22:39.233Z,9.00
2022-12-22T08:25:06.418Z,9.23
2022-12-22T08:27:45.820Z,12.70
2022-12-22T08:30:13.490Z,9.30
2022-12-22T08:32:41.131Z,10.68
2022-12-22T08:35:09.823Z,10.00
2022-12-22T08:37:41.489Z,11.88
2022-12-22T08:40:14.509Z,9.55
2022-12-22T08:42:41.955Z,10.45
2022-12-22T08:45:11.184Z,10.10
2022-12-22T08:47:38.112Z,9.45
2022-12-22T08:50:06.143Z,10.35
2022-12-22T08:52:32.909Z,9.75
2022-12-22T08:54:59.641Z,8.85
2022-12-22T08:57:26.724Z,9.20
2022-12-22T08:59:53.501Z,12.82
2022-12-22T09:02:20.438Z,8.05
2022-12-22T09:04:47.372Z,8.98
2022-12-22T09:07:14.423Z,9.02
2022-12-22T09:09:41.259Z,10.68
2022-12-22T09:12:08.464Z,8.93
2022-12-22T09:14:35.256Z,12.93
2022-12-22T09:17:02.150Z,13.55
2022-12-22T09:19:29.039Z,15.20
2022-12-22T09:21:55.838Z,17.20
2022-12-22T09:24:22.609Z,12.63
2022-12-22T09:26:49.554Z,12.15
2022-12-22T09:29:16.821Z,9.80
2022-12-22T09:31:44.602Z,29.35
2022-12-22T09:34:17.197Z,12.30
2022-12-22T09:36:45.127Z,7.53
2022-12-22T09:39:12.608Z,6.68
2022-12-22T09:41:48.304Z,7.03
2022-12-22T09:44:42.164Z,6.70
2022-12-22T09:47:25.676Z,7.18
2022-12-22T09:49:55.364Z,8.48
2022-12-22T09:52:51.851Z,5.90
2022-12-22T09:55:24.768Z,5.53
2022-12-22T09:57:55.543Z,5.07
2022-12-22T10:00:28.316Z,6.07
2022-12-22T10:03:29.300Z,5.68
2022-12-22T10:06:12.731Z,7.43
2022-12-22T10:11:13.639Z,5.95
2022-12-22T10:13:40.507Z,7.15
2022-12-22T10:16:28.361Z,6.22
2022-12-22T10:19:11.709Z,5.28
2022-12-22T10:21:46.430Z,5.72
2022-12-22T10:24:29.253Z,7.75
2022-12-22T10:26:59.136Z,8.65
2022-12-22T10:29:27.250Z,9.80
2022-12-22T10:32:04.823Z,9.00
2022-12-22T10:34:31.928Z,7.00
2022-12-22T10:37:04.112Z,9.77
2022-12-22T10:39:36.737Z,7.73
2022-12-22T10:42:14.050Z,8.75
2022-12-22T10:44:46.580Z,7.05
2022-12-22T10:47:23.795Z,11.35
2022-12-22T10:52:30.475Z,6.78
2022-12-22T10:55:35.928Z,6.22
2022-12-22T11:00:45.084Z,7.90
2022-12-22T11:03:20.619Z,9.43
2022-12-22T11:05:49.383Z,11.77
2022-12-22T11:08:19.834Z,6.22
2022-12-22T11:11:01.114Z,9.80
2022-12-22T11:13:51.569Z,7.63
2022-12-22T11:16:52.137Z,7.72
2022-12-22T11:19:43.541Z,7.45
2022-12-22T11:22:34.978Z,8.98
2022-12-22T11:25:23.334Z,6.05
2022-12-22T11:28:17.733Z,7.15
2022-12-22T11:31:30.052Z,7.57
2022-12-22T11:34:05.265Z,5.35
2022-12-22T11:37:18.288Z,4.93
2022-12-22T11:40:15.800Z,4.85
2022-12-22T11:43:26.097Z,7.22
2022-12-22T11:46:32.913Z,4.85
2022-12-22T11:49:33.252Z,6.93
2022-12-22T11:52:03.275Z,10.07
2022-12-22T11:54:57.515Z,5.13
2022-12-22T11:57:44.325Z,6.30
2022-12-22T12:00:17.231Z,4.72
2022-12-22T12:03:18.528Z,7.15
2022-12-22T12:06:08.299Z,4.50
2022-12-22T12:08:49.680Z,4.60
2022-12-22T12:11:41.272Z,4.82
2022-12-22T12:14:29.234Z,4.00
2022-12-22T12:17:27.896Z,7.78
2022-12-22T12:20:31.603Z,2.78
2022-12-22T12:23:13.760Z,6.18
2022-12-22T12:26:24.747Z,4.60
2022-12-22T12:29:11.472Z,5.82
2022-12-22T12:32:16.995Z,11.35
2022-12-22T12:34:49.769Z,7.53
2022-12-22T12:37:29.605Z,5.20
2022-12-22T12:40:19.097Z,5.50
2022-12-22T12:42:47.872Z,8.70
2022-12-22T12:45:41.169Z,4.15
2022-12-22T12:48:25.944Z,13.13
2022-12-22T12:50:59.147Z,5.00
2022-12-22T12:53:28.698Z,5.05
2022-12-22T12:55:59.557Z,7.63
2022-12-22T12:58:35.673Z,6.18
2022-12-22T13:01:05.080Z,5.63
2022-12-22T13:04:01.645Z,5.47
2022-12-22T13:06:49.416Z,7.95
2022-12-22T13:09:50.047Z,6.63
2022-12-22T13:12:49.405Z,6.13
2022-12-22T13:15:38.237Z,6.03
2022-12-22T13:18:34.640Z,6.90
2022-12-22T13:21:51.032Z,7.78
2022-12-22T13:24:22.731Z,3.47
2022-12-22T13:26:44.821Z,3.28
2022-12-22T13:29:37.145Z,4.78
2022-12-22T13:32:20.832Z,3.70
2022-12-22T13:37:51.196Z,7.03
2022-12-22T13:40:22.795Z,3.53
2022-12-22T13:43:17.653Z,5.10
2022-12-22T13:45:46.871Z,3.83
2022-12-22T13:48:22.277Z,5.35
2022-12-22T13:51:00.017Z,5.05
2022-12-22T13:54:11.039Z,7.05
2022-12-22T13:56:40.061Z,6.32
2022-12-22T13:59:36.542Z,5.47
2022-12-22T14:02:09.361Z,4.72
2022-12-22T14:04:39.386Z,6.95
2022-12-22T14:07:14.306Z,10.30
2022-12-22T14:09:48.727Z,5.93
2022-12-22T14:12:24.088Z,5.60
2022-12-22T14:14:54.186Z,4.50
2022-12-22T14:17:31.198Z,3.03
2022-12-22T14:20:01.705Z,3.50
2022-12-22T14:22:33.106Z,5.22
2022-12-22T14:25:17.620Z,6.80
2022-12-22T14:27:50.747Z,3.47
2022-12-22T14:32:57.705Z,3.63
2022-12-22T14:35:29.151Z,6.57
2022-12-22T14:38:26.365Z,6.30
2022-12-22T14:40:57.815Z,4.03
2022-12-22T14:43:30.131Z,5.38
2022-12-22T14:46:07.854Z,4.22
2022-12-22T14:48:45.743Z,5.68
2022-12-22T14:51:18.871Z,3.40
2022-12-22T14:56:19.858Z,2.83
2022-12-22T14:58:48.677Z,2.13
2022-12-22T15:01:30.808Z,5.03
2022-12-22T15:04:05.761Z,10.82
2022-12-22T15:06:42.155Z,67.90
2022-12-22T15:09:13.399Z,57.42
2022-12-22T15:11:47.196Z,18.42
2022-12-22T15:14:33.508Z,10.25
2022-12-22T15:17:05.335Z,12.25
2022-12-22T15:19:36.875Z,5.40
2022-12-22T15:22:08.473Z,10.27
2022-12-22T15:24:35.273Z,4.18
2022-12-22T15:27:02.139Z,10.80
2022-12-22T15:29:28.975Z,6.40
2022-12-22T15:31:55.774Z,2.95
2022-12-22T15:34:26.465Z,4.97
2022-12-22T15:36:53.522Z,2.13
2022-12-22T15:39:22.070Z,4.45
2022-12-22T15:41:49.291Z,2.50
2022-12-22T15:44:16.633Z,2.33
2022-12-22T15:46:49.271Z,3.45
2022-12-22T15:49:21.440Z,2.20
2022-12-22T15:51:52.110Z,2.80
2022-12-22T15:54:19.811Z,1.92
2022-12-22T15:56:47.235Z,6.20
2022-12-22T15:59:18.597Z,4.75
2022-12-22T16:01:45.509Z,3.47
2022-12-22T16:04:12.528Z,2.22
2022-12-22T16:06:39.646Z,2.20
2022-12-22T16:09:17.119Z,1.80
2022-12-22T16:11:43.927Z,3.15
2022-12-22T16:14:13.835Z,5.20
2022-12-22T16:16:41.646Z,6.80
2022-12-22T16:19:16.758Z,3.45
2022-12-22T16:21:47.318Z,5.20
2022-12-22T16:24:30.143Z,2.65
2022-12-22T16:26:58.049Z,5.95
2022-12-22T16:29:25.706Z,4.38
2022-12-22T16:31:53.569Z,4.63
2022-12-22T16:34:20.542Z,4.70
2022-12-22T16:36:47.372Z,3.83
2022-12-22T16:39:14.228Z,6.63
2022-12-22T16:41:41.037Z,4.65
2022-12-22T16:46:54.007Z,3.60
2022-12-22T16:49:26.346Z,2.88
2022-12-22T16:51:54.721Z,7.78
2022-12-22T16:54:21.691Z,5.55
2022-12-22T16:56:51.175Z,4.15
2022-12-22T16:59:18.295Z,5.95
2022-12-22T17:01:55.766Z,5.32
2022-12-22T17:04:29.209Z,3.50
2022-12-22T17:06:58.777Z,4.50
2022-12-22T17:09:33.019Z,5.13
2022-12-22T17:12:01.104Z,3.20
2022-12-22T17:14:33.086Z,6.20
2022-12-22T17:17:00.164Z,4.97
2022-12-22T17:19:27.055Z,3.80
2022-12-22T17:21:55.283Z,3.33
2022-12-22T17:24:28.132Z,1.73
2022-12-22T17:27:02.040Z,4.40
2022-12-22T17:29:29.922Z,2.38
2022-12-22T17:31:57.201Z,1.50
2022-12-22T17:34:24.242Z,1.55
2022-12-22T17:36:51.535Z,1.40
2022-12-22T17:39:22.864Z,4.28
2022-12-22T17:41:56.247Z,1.30
2022-12-22T17:44:26.122Z,1.92
2022-12-22T17:46:53.342Z,3.55
2022-12-22T17:49:22.280Z,3.20
2022-12-22T17:51:49.822Z,1.45
2022-12-22T17:54:27.445Z,3.28
2022-12-22T17:57:02.900Z,4.55
2022-12-22T17:59:30.829Z,8.20
2022-12-22T18:01:57.896Z,7.63
2022-12-22T18:04:24.771Z,4.63
2022-12-22T18:06:51.761Z,6.90
2022-12-22T18:09:26.069Z,6.53
2022-12-22T18:11:53.957Z,3.42
2022-12-22T18:14:22.268Z,2.95
2022-12-22T18:16:49.369Z,3.55
2022-12-22T18:19:16.278Z,4.82
2022-12-22T18:21:43.948Z,8.30
2022-12-22T18:24:16.949Z,4.05
2022-12-22T18:26:43.923Z,2.30
2022-12-22T18:29:17.838Z,2.00
2022-12-22T18:31:45.010Z,1.95
2022-12-22T18:34:12.633Z,4.93
2022-12-22T18:36:42.346Z,3.78
2022-12-22T18:39:17.909Z,3.38
2022-12-22T18:41:45.091Z,8.25
2022-12-22T18:44:19.378Z,3.63
2022-12-22T18:46:48.668Z,6.25
2022-12-22T18:49:15.890Z,4.15
2022-12-22T18:51:44.779Z,7.13
2022-12-22T18:54:36.324Z,5.38
2022-12-22T18:57:03.769Z,5.43
2022-12-22T18:59:32.427Z,5.28
2022-12-22T19:02:29.808Z,4.68
2022-12-22T19:04:57.083Z,5.20
2022-12-22T19:07:25.673Z,4.68
2022-12-22T19:09:52.919Z,4.80
2022-12-22T19:12:25.641Z,2.70
2022-12-22T19:14:59.302Z,3.75
2022-12-22T19:17:28.811Z,3.75
2022-12-22T19:19:57.086Z,3.53
2022-12-22T19:22:23.952Z,6.45
2022-12-22T19:24:51.559Z,7.00
2022-12-22T19:27:24.750Z,5.90
2022-12-22T19:32:38.384Z,3.22
2022-12-22T19:35:13.703Z,7.43
2022-12-22T19:37:40.504Z,2.90
2022-12-22T19:40:08.275Z,2.30
2022-12-22T19:42:35.542Z,4.50
2022-12-22T19:45:10.330Z,8.70
2022-12-22T19:47:38.458Z,8.93
2022-12-22T19:50:14.324Z,11.82
2022-12-22T19:52:41.130Z,34.65
2022-12-22T19:55:08.282Z,10.13
2022-12-22T19:57:41.120Z,16.85
2022-12-22T20:00:20.292Z,15.57
2022-12-22T20:02:50.728Z,3.05
2022-12-22T20:05:23.748Z,2.85
2022-12-22T20:07:59.057Z,60.30
2022-12-22T20:10:28.893Z,7.38
2022-12-22T20:13:01.327Z,5.05
2022-12-22T20:15:37.272Z,6.95
2022-12-22T20:18:21.219Z,11.07
2022-12-22T20:20:59.610Z,4.65
2022-12-22T20:23:29.579Z,6.38
2022-12-22T20:26:02.582Z,5.28
2022-12-22T20:28:33.073Z,5.53
2022-12-22T20:31:02.339Z,3.83
2022-12-22T20:33:29.963Z,9.00
2022-12-22T20:35:58.676Z,5.63
2022-12-22T20:38:37.144Z,6.65
2022-12-22T20:41:08.071Z,3.85
2022-12-22T20:43:36.711Z,7.72
2022-12-22T20:46:16.373Z,3.03
2022-12-22T20:48:54.460Z,5.57
2022-12-22T20:51:22.379Z,8.32
2022-12-22T20:53:50.131Z,4.65
2022-12-22T20:56:38.725Z,5.90
2022-12-22T20:59:20.920Z,7.28
2022-12-22T21:01:49.675Z,6.45
2022-12-22T21:04:17.179Z,5.93
2022-12-22T21:06:49.599Z,41.20
2022-12-22T21:09:17.352Z,8.27
2022-12-22T21:11:44.351Z,9.38
2022-12-22T21:14:12.616Z,30.25
2022-12-22T21:16:40.405Z,15.23
2022-12-22T21:19:07.651Z,13.52
2022-12-22T21:21:34.777Z,5.50
2022-12-22T21:24:01.604Z,7.93
2022-12-22T21:26:36.560Z,6.45
2022-12-22T21:29:08.421Z,4.05
2022-12-22T21:31:35.208Z,5.45
2022-12-22T21:34:02.108Z,9.07
2022-12-22T21:36:34.097Z,10.85
2022-12-22T21:39:06.553Z,12.27
2022-12-22T21:41:51.834Z,15.80
2022-12-22T21:44:18.660Z,6.53
2022-12-22T21:46:46.957Z,30.42
2022-12-22T21:49:23.495Z,28.92
2022-12-22T21:51:52.427Z,38.55
2022-12-22T21:54:21.447Z,19.10
2022-12-22T21:56:49.468Z,32.28
2022-12-22T21:59:16.588Z,29.55
2022-12-22T22:01:45.329Z,16.05
2022-12-22T22:04:12.938Z,69.90
2022-12-22T22:06:39.743Z,33.60
2022-12-22T22:09:07.220Z,13.20
2022-12-22T22:11:57.955Z,10.25
2022-12-22T22:14:25.950Z,26.85
2022-12-22T22:16:52.832Z,16.58
2022-12-22T22:19:19.597Z,20.63
2022-12-22T22:21:46.977Z,15.02
2022-12-22T22:24:14.024Z,13.10
2022-12-22T22:26:40.890Z,9.80
2022-12-22T22:29:07.697Z,7.00
2022-12-22T22:31:34.606Z,9.15
2022-12-22T22:34:01.442Z,9.85
2022-12-22T22:36:28.282Z,10.45
2022-12-22T22:38:55.410Z,9.73
2022-12-22T22:41:22.279Z,3.60
2022-12-22T22:43:49.097Z,8.02
2022-12-22T22:46:16.014Z,4.28
2022-12-22T22:48:42.871Z,5.88
2022-12-22T22:51:10.928Z,7.28
2022-12-22T22:53:37.681Z,5.35
2022-12-22T22:56:04.909Z,6.78
2022-12-22T22:58:31.721Z,7.57
2022-12-22T23:01:10.801Z,7.38
2022-12-22T23:03:37.840Z,10.35
2022-12-22T23:06:12.647Z,6.00
2022-12-22T23:08:39.505Z,6.75
2022-12-22T23:11:13.107Z,6.85
2022-12-22T23:13:39.970Z,9.35
2022-12-22T23:16:06.811Z,6.63
2022-12-22T23:18:33.934Z,7.63
2022-12-22T23:21:03.662Z,7.45
2022-12-22T23:23:32.095Z,9.77
2022-12-22T23:25:59.272Z,5.97
2022-12-22T23:28:26.281Z,13.88
2022-12-22T23:30:53.775Z,9.65
2022-12-22T23:33:21.273Z,6.57
2022-12-22T23:35:49.905Z,12.10
2022-12-22T23:38:20.392Z,10.27
2022-12-22T23:40:52.915Z,10.07
2022-12-22T23:43:20.602Z,19.85
2022-12-22T23:45:47.370Z,10.93
2022-12-22T23:48:15.274Z,14.15
2022-12-22T23:50:45.812Z,8.40
2022-12-22T23:53:12.661Z,13.90
2022-12-22T23:55:47.785Z,9.93
2022-12-22T23:58:16.067Z,10.43
